Time;durP1;ratioP1;P1;durP2;ratioP2;P2;SDS_P1;SDS_P2;PMS_P1;PMS_P2;Temp;Humidity;BMP_temperature;BMP_pressure;BME280_temperature;BME280_humidity;BME280_pressure;Samples;Min_cycle;Max_cycle;Signal;HPM_P1;HPM_P2
2023/01/08 00:01:48;;;;;;;4.30;2.50;;;;;;;8.78;95.67;100267.72;4920079;29;20029;-93
2023/01/08 00:04:16;;;;;;;4.97;2.72;;;;;;;8.82;95.39;100260.78;4920167;29;20111;-93
2023/01/08 00:06:42;;;;;;;3.05;2.35;;;;;;;8.76;95.52;100266.06;4920855;29;20036;-94
2023/01/08 00:09:09;;;;;;;3.27;2.40;;;;;;;8.71;95.93;100271.31;4924314;29;20032;-94
2023/01/08 00:11:34;;;;;;;3.95;2.47;;;;;;;8.70;95.94;100279.94;4920478;29;20111;-93
2023/01/08 00:13:59;;;;;;;3.75;2.35;;;;;;;8.71;95.83;100273.91;4920286;29;20059;-93
2023/01/08 00:16:24;;;;;;;3.20;2.30;;;;;;;8.73;95.77;100284.19;4920524;29;20040;-94
2023/01/08 00:18:50;;;;;;;2.60;2.17;;;;;;;8.73;95.75;100279.03;4925442;29;20058;-92
2023/01/08 00:21:15;;;;;;;3.57;2.37;;;;;;;8.75;95.90;100274.69;4925285;29;20036;-93
2023/01/08 00:23:40;;;;;;;3.03;2.40;;;;;;;8.76;95.72;100261.75;4926954;29;20024;-92
2023/01/08 00:26:08;;;;;;;3.28;2.60;;;;;;;8.79;95.74;100258.25;4923964;29;20035;-93
2023/01/08 00:28:34;;;;;;;4.65;2.88;;;;;;;8.88;95.26;100254.66;4921318;29;20028;-93
2023/01/08 00:31:03;;;;;;;5.65;2.50;;;;;;;8.81;95.57;100246.97;4921383;29;20493;-93
2023/01/08 00:33:28;;;;;;;3.80;2.50;;;;;;;8.88;95.03;100254.66;4921361;29;20063;-93
2023/01/08 00:35:54;;;;;;;4.13;2.70;;;;;;;8.84;95.19;100242.63;4920187;29;20028;-93
2023/01/08 00:38:31;;;;;;;5.27;2.87;;;;;;;8.95;94.66;100235.53;4919780;29;20067;-93
2023/01/08 00:40:56;;;;;;;4.43;2.92;;;;;;;8.87;94.62;100235.66;4923987;29;20083;-94
2023/01/08 00:43:22;;;;;;;4.93;2.67;;;;;;;8.84;95.18;100233.13;4919413;29;20028;-95
2023/01/08 00:45:53;;;;;;;5.80;2.83;;;;;;;8.83;95.04;100223.69;4919158;29;20036;-93
2023/01/08 00:48:23;;;;;;;5.68;3.13;;;;;;;8.82;95.38;100224.56;4919479;29;20090;-93
2023/01/08 00:50:53;;;;;;;4.63;2.80;;;;;;;8.79;95.56;100220.28;4919818;29;20028;-94
2023/01/08 00:53:20;;;;;;;5.50;2.90;;;;;;;8.82;95.30;100214.22;4936477;23;20067;-94
2023/01/08 00:55:48;;;;;;;4.80;2.85;;;;;;;8.81;95.55;100218.50;4944799;29;20051;-93
2023/01/08 00:58:16;;;;;;;5.13;2.60;;;;;;;8.82;95.27;100214.22;4938653;29;20031;-93
2023/01/08 01:00:41;;;;;;;4.88;2.65;;;;;;;8.78;95.64;100215.97;4938389;29;20047;-95
2023/01/08 01:03:07;;;;;;;3.70;2.57;;;;;;;8.80;95.36;100209.03;4937910;29;20098;-94
2023/01/08 01:05:32;;;;;;;4.40;2.50;;;;;;;8.79;95.32;100214.25;4937415;29;20027;-93
2023/01/08 01:07:57;;;;;;;3.50;2.47;;;;;;;8.77;95.65;100213.44;4938294;29;20032;-94
2023/01/08 01:10:44;;;;;;;3.50;2.60;;;;;;;8.78;95.53;100210.81;4937922;29;20020;-94
2023/01/08 01:13:15;;;;;;;3.70;2.50;;;;;;;8.75;95.58;100208.28;4938028;29;20063;-94
2023/01/08 01:15:47;;;;;;;4.22;2.40;;;;;;;8.74;95.98;100198.81;4938070;29;20028;-93
2023/01/08 01:18:12;;;;;;;3.58;2.50;;;;;;;8.83;95.74;100196.94;4937915;29;20024;-93
2023/01/08 01:20:37;;;;;;;2.50;2.30;;;;;;;8.75;95.73;100197.94;4937973;29;20039;-94
2023/01/08 01:23:14;;;;;;;4.53;2.63;;;;;;;8.76;96.03;100201.38;4937886;29;20028;-94
2023/01/08 01:25:46;;;;;;;4.85;2.90;;;;;;;8.80;95.51;100195.28;4937934;29;20111;-94
2023/01/08 01:28:15;;;;;;;4.72;2.95;;;;;;;8.78;95.96;100204.78;4937331;29;20023;-93
2023/01/08 01:30:43;;;;;;;5.03;2.88;;;;;;;8.74;96.16;100193.66;4937881;29;20102;-93
2023/01/08 01:33:14;;;;;;;5.10;3.10;;;;;;;8.82;95.29;100188.34;4937402;29;20036;-94
2023/01/08 01:35:45;;;;;;;5.95;3.00;;;;;;;8.77;95.84;100185.84;4937549;29;20036;-93
2023/01/08 01:38:17;;;;;;;3.78;2.78;;;;;;;8.83;95.52;100189.19;4943236;29;20487;-93
2023/01/08 01:40:45;;;;;;;4.95;3.00;;;;;;;8.79;95.83;100193.56;4937784;29;20080;-93
2023/01/08 01:43:47;;;;;;;5.93;2.97;;;;;;;8.83;95.60;100192.63;4936628;29;20062;-94
2023/01/08 01:46:35;;;;;;;5.22;2.65;;;;;;;8.85;95.47;100198.59;4936982;29;20034;-92
2023/01/08 01:49:07;;;;;;;4.55;2.90;;;;;;;8.84;95.88;100203.81;4937838;29;20051;-94
2023/01/08 01:51:34;;;;;;;7.20;3.10;;;;;;;8.85;95.84;100200.34;4955950;29;20023;-93
2023/01/08 01:54:01;;;;;;;;;;;;;;;8.94;95.29;100213.13;4956240;29;20518;-94
2023/01/08 01:56:50;;;;;;;7.05;2.97;;;;;;;8.90;95.45;100216.63;4956164;29;19962;-92
2023/01/08 01:59:15;;;;;;;5.05;2.80;;;;;;;8.82;96.55;100203.88;4942663;29;20094;-93
2023/01/08 02:01:51;;;;;;;6.27;2.93;;;;;;;8.88;95.85;100219.25;4937334;29;20473;-94
2023/01/08 02:04:21;;;;;;;6.53;2.83;;;;;;;8.79;95.97;100212.50;4937310;29;20108;-94
2023/01/08 02:07:04;;;;;;;7.65;2.63;;;;;;;8.78;95.41;100218.56;4937253;29;20035;-93
2023/01/08 02:09:46;;;;;;;4.18;2.85;;;;;;;8.70;95.59;100214.44;4936904;29;20023;-94
2023/01/08 02:12:25;;;;;;;5.35;2.35;;;;;;;8.64;95.50;100218.81;4936933;29;20030;-94
2023/01/08 02:15:17;;;;;;;5.03;2.10;;;;;;;8.54;95.53;100203.50;4937400;29;20032;-94
2023/01/08 02:17:59;;;;;;;3.40;2.00;;;;;;;8.43;96.06;100203.63;4936311;29;20123;-94
2023/01/08 02:20:33;;;;;;;2.92;1.70;;;;;;;8.34;95.71;100202.03;4937969;23;20052;-94
2023/01/08 02:23:09;;;;;;;3.17;2.08;;;;;;;8.27;95.97;100195.28;4918117;29;20115;-94
2023/01/08 02:26:05;;;;;;;5.25;1.70;;;;;;;8.20;95.37;100186.75;4918110;29;20032;-94
2023/01/08 02:28:33;;;;;;;;;;;;;;;8.13;95.61;100182.59;4923153;29;20106;-93
2023/01/08 02:30:58;;;;;;;2.33;1.40;;;;;;;8.04;95.48;100179.28;4936275;29;19926;-94
2023/01/08 02:33:27;;;;;;;3.27;1.30;;;;;;;8.00;95.56;100189.66;4936624;29;20400;-94
2023/01/08 02:36:16;;;;;;;3.03;1.42;;;;;;;7.94;95.30;100182.00;4936239;29;20058;-94
2023/01/08 02:39:06;;;;;;;2.55;1.10;;;;;;;7.93;95.56;100177.72;4936745;29;20063;-93
2023/01/08 02:41:50;;;;;;;3.05;1.13;;;;;;;7.84;95.92;100187.31;4936458;29;20105;-94
2023/01/08 02:44:21;;;;;;;1.05;0.90;;;;;;;7.85;95.61;100185.56;4936835;29;20098;-95
2023/01/08 02:46:49;;;;;;;1.13;1.00;;;;;;;7.78;95.92;100189.13;4902688;29;20037;-95
2023/01/08 02:49:15;;;;;;;1.23;1.13;;;;;;;7.75;95.88;100189.16;4902615;29;20024;-95
2023/01/08 02:51:47;;;;;;;1.55;1.05;;;;;;;7.72;96.02;100182.31;4902366;29;20036;-95
2023/01/08 02:54:20;;;;;;;3.30;1.30;;;;;;;7.79;96.02;100177.91;4902597;29;20165;-94
2023/01/08 02:56:50;;;;;;;2.72;1.05;;;;;;;7.71;95.98;100178.03;4911974;29;20071;-94
2023/01/08 02:59:17;;;;;;;4.18;1.23;;;;;;;7.67;96.54;100184.09;4920971;29;20111;-93
2023/01/08 03:01:44;;;;;;;4.93;1.30;;;;;;;7.59;97.29;100186.81;4918370;29;20040;-93
2023/01/08 03:04:16;;;;;;;1.95;1.00;;;;;;;7.54;97.40;100179.09;4906762;29;20020;-93
2023/01/08 03:06:42;;;;;;;1.38;1.00;;;;;;;7.52;97.67;100177.41;4923096;29;20410;-92
2023/01/08 03:09:29;;;;;;;2.33;1.02;;;;;;;7.51;97.24;100167.97;4927598;29;20496;-92
2023/01/08 03:12:22;;;;;;;;;;;;;;;7.48;98.03;100160.28;4921656;29;20039;-92
2023/01/08 03:15:20;;;;;;;2.10;1.25;;;;;;;7.44;97.65;100172.34;4921114;29;19915;-93
2023/01/08 03:17:49;;;;;;;1.30;0.90;;;;;;;7.40;97.40;100168.97;4913461;29;20071;-92
2023/01/08 03:20:17;;;;;;;1.10;0.60;;;;;;;7.40;97.26;100168.13;4920265;29;20374;-92
2023/01/08 03:23:09;;;;;;;1.05;0.63;;;;;;;7.44;97.59;100164.59;4920467;29;20051;-92
2023/01/08 03:25:39;;;;;;;2.28;0.70;;;;;;;7.39;98.19;100176.75;4919650;29;20496;-92
2023/01/08 03:28:10;;;;;;;2.63;0.75;;;;;;;7.37;97.47;100169.03;4904867;29;20068;-92
2023/01/08 03:30:52;;;;;;;1.27;0.55;;;;;;;7.34;98.10;100170.75;4902157;29;20041;-92
2023/01/08 03:33:23;;;;;;;2.15;0.80;;;;;;;7.32;98.35;100167.38;4901600;29;20042;-92
2023/01/08 03:35:52;;;;;;;2.08;1.00;;;;;;;7.33;98.24;100174.22;4901735;29;20125;-93
2023/01/08 03:38:34;;;;;;;0.80;0.60;;;;;;;7.33;98.05;100167.34;4901504;29;20031;-92
2023/01/08 03:41:54;;;;;;;2.72;0.90;;;;;;;7.35;97.94;100157.84;4904463;29;20031;-92
2023/01/08 03:44:13;;;;;;;1.42;1.00;;;;;;;7.26;98.66;100156.25;4916023;29;20076;-94
2023/01/08 03:46:45;;;;;;;2.40;1.17;;;;;;;7.36;98.19;100153.53;4919997;29;20028;-92
2023/01/08 03:49:11;;;;;;;2.30;0.75;;;;;;;7.30;98.09;100156.22;4919787;29;20123;-93
2023/01/08 03:52:24;;;;;;;1.40;0.43;;;;;;;7.29;98.65;100157.91;4920388;29;20059;-93
2023/01/08 03:54:52;;;;;;;2.00;0.98;;;;;;;7.26;98.64;100157.97;4920185;29;20481;-93
2023/01/08 03:57:18;;;;;;;2.38;0.80;;;;;;;7.26;98.88;100145.91;4917234;29;20080;-93
2023/01/08 03:59:43;;;;;;;1.90;0.50;;;;;;;7.28;98.46;100143.31;4920078;29;20059;-93
2023/01/08 04:02:15;;;;;;;1.73;0.77;;;;;;;7.30;98.63;100143.31;4919876;29;20032;-93
2023/01/08 04:04:49;;;;;;;2.80;0.80;;;;;;;7.31;98.82;100140.69;4920360;29;20028;-93
2023/01/08 04:07:15;;;;;;;2.67;1.20;;;;;;;7.38;98.12;100141.47;4919836;29;20032;-93
2023/01/08 04:09:46;;;;;;;2.40;0.97;;;;;;;7.30;99.09;100135.56;4920446;29;20075;-93
2023/01/08 04:12:21;;;;;;;2.65;1.10;;;;;;;7.31;99.06;100142.44;4920188;29;20469;-93
2023/01/08 04:14:49;;;;;;;2.75;0.90;;;;;;;7.29;99.07;100131.25;4920073;29;20051;-94
2023/01/08 04:17:20;;;;;;;2.80;0.93;;;;;;;7.33;98.41;100123.47;4919434;29;20122;-93
2023/01/08 04:19:48;;;;;;;3.15;0.93;;;;;;;7.31;98.59;100117.47;4920244;29;20091;-93
2023/01/08 04:22:14;;;;;;;2.17;0.88;;;;;;;7.30;98.54;100122.66;4918828;29;20075;-93
2023/01/08 04:24:39;;;;;;;1.50;0.77;;;;;;;7.26;99.17;100121.84;4913703;29;20064;-92
2023/01/08 04:27:13;;;;;;;1.70;0.90;;;;;;;7.23;99.09;100133.03;4900466;29;20029;-93
2023/01/08 04:29:47;;;;;;;1.27;1.10;;;;;;;7.23;99.73;100130.47;4900149;29;20498;-92
2023/01/08 04:32:13;;;;;;;2.33;1.15;;;;;;;7.21;99.41;100129.63;4900756;29;20096;-93
2023/01/08 04:34:38;;;;;;;2.33;1.40;;;;;;;7.34;98.72;100113.97;4901240;29;20191;-94
2023/01/08 04:37:04;;;;;;;2.75;1.30;;;;;;;7.25;99.45;100114.97;4903027;29;20043;-93
2023/01/08 04:39:35;;;;;;;3.53;1.50;;;;;;;7.23;99.97;100124.47;4905329;29;20087;-93
2023/01/08 04:42:03;;;;;;;2.10;1.48;;;;;;;7.24;99.91;100106.34;4900439;29;20043;-93
2023/01/08 04:44:54;;;;;;;2.38;1.42;;;;;;;7.30;99.46;100104.59;4899948;29;20036;-93
2023/01/08 04:47:19;;;;;;;2.42;1.40;;;;;;;7.26;99.68;100103.78;4896825;29;20099;-93
2023/01/08 04:49:45;;;;;;;3.73;1.50;;;;;;;7.29;99.39;100105.47;4900276;29;20108;-93
2023/01/08 04:52:32;;;;;;;1.60;1.48;;;;;;;7.34;98.95;100107.09;4900062;29;20043;-93
2023/01/08 04:54:57;;;;;;;1.73;1.40;;;;;;;7.33;99.66;100118.28;4900959;29;20036;-94
2023/01/08 04:57:22;;;;;;;2.50;1.27;;;;;;;7.31;98.89;100111.47;4929365;29;20031;-93
2023/01/08 04:59:48;;;;;;;1.73;1.33;;;;;;;7.31;99.09;100119.19;4938282;29;20028;-94
2023/01/08 05:02:13;;;;;;;2.78;1.50;;;;;;;7.35;98.65;100126.00;4938509;29;20031;-94
2023/01/08 05:04:38;;;;;;;1.90;1.40;;;;;;;7.34;99.13;100124.31;4950528;29;20492;-93
2023/01/08 05:07:04;;;;;;;2.92;1.27;;;;;;;7.31;99.37;100108.88;4946400;29;20035;-93
2023/01/08 05:09:29;;;;;;;1.63;1.17;;;;;;;7.30;99.11;100107.16;4949736;29;20052;-93
2023/01/08 05:11:54;;;;;;;2.57;1.40;;;;;;;7.33;98.95;100120.00;4945234;29;20035;-94
2023/01/08 05:14:20;;;;;;;1.50;1.40;;;;;;;7.32;99.21;100126.06;4937400;29;20027;-94
2023/01/08 05:16:46;;;;;;;2.08;1.40;;;;;;;7.31;98.77;100119.19;4938259;29;20078;-92
2023/01/08 05:19:17;;;;;;;2.40;1.25;;;;;;;7.35;98.34;100120.84;4937974;29;20023;-94
2023/01/08 05:21:43;;;;;;;1.92;1.20;;;;;;;7.28;98.42;100108.91;4944856;29;20078;-94
2023/01/08 05:24:14;;;;;;;1.20;1.10;;;;;;;7.27;98.04;100110.63;4946909;29;20023;-92
2023/01/08 05:26:48;;;;;;;4.30;1.42;;;;;;;7.28;97.74;100111.50;4927033;29;20089;-94
2023/01/08 05:29:14;;;;;;;3.15;1.33;;;;;;;7.23;97.72;100107.22;4911471;29;20016;-93
2023/01/08 05:31:42;;;;;;;1.53;0.90;;;;;;;7.23;97.70;100099.50;4904010;29;20557;-93
2023/01/08 05:34:16;;;;;;;3.40;1.40;;;;;;;7.25;97.21;100105.50;4898669;29;20041;-94
2023/01/08 05:36:42;;;;;;;2.90;1.10;;;;;;;7.23;96.85;100093.50;4899630;29;20025;-94
2023/01/08 05:39:07;;;;;;;1.60;0.80;;;;;;;7.23;96.83;100081.41;4899088;29;20073;-93
2023/01/08 05:41:32;;;;;;;1.70;1.13;;;;;;;7.22;96.67;100076.28;4899951;29;20048;-93
2023/01/08 05:43:59;;;;;;;2.07;0.83;;;;;;;7.23;96.58;100086.59;4899884;29;20033;-93
2023/01/08 05:46:24;;;;;;;2.53;1.13;;;;;;;7.22;96.68;100089.19;4899134;29;20033;-92
2023/01/08 05:48:49;;;;;;;1.67;0.83;;;;;;;7.22;96.59;100095.19;4899308;29;20024;-93
2023/01/08 05:51:15;;;;;;;1.20;0.90;;;;;;;7.19;96.46;100090.09;4899287;29;20053;-93
2023/01/08 05:53:40;;;;;;;2.50;0.85;;;;;;;7.16;95.61;100087.56;4899493;29;20036;-94
2023/01/08 05:56:17;;;;;;;1.80;1.03;;;;;;;7.13;95.72;100089.31;4899285;29;20036;-93
2023/01/08 05:58:45;;;;;;;3.03;1.27;;;;;;;7.13;95.87;100094.50;4899339;29;20028;-94
2023/01/08 06:01:16;;;;;;;2.53;0.90;;;;;;;7.02;95.74;100095.47;4899209;29;20032;-93
2023/01/08 06:03:42;;;;;;;1.48;1.02;;;;;;;6.97;95.73;100099.81;4899552;29;20028;-94
2023/01/08 06:06:16;;;;;;;2.37;0.97;;;;;;;6.94;95.28;100105.00;4899365;29;20075;-94
2023/01/08 06:08:52;;;;;;;1.75;1.05;;;;;;;6.89;95.37;100106.81;4896610;29;20087;-94
2023/01/08 06:14:10;;;;;;;0.98;0.80;;;;;;;6.82;96.06;100113.78;4899681;29;20043;-94
2023/01/08 06:16:35;;;;;;;1.20;0.80;;;;;;;6.76;95.92;100111.25;4898900;29;20477;-94
2023/01/08 06:19:01;;;;;;;1.03;0.90;;;;;;;6.76;96.13;100121.56;4898404;29;20025;-93
2023/01/08 06:21:26;;;;;;;1.40;0.82;;;;;;;6.73;95.86;100126.78;4897670;29;20510;-93
2023/01/08 06:23:51;;;;;;;0.75;0.73;;;;;;;6.70;95.99;100119.06;4913085;29;20043;-94
2023/01/08 06:26:17;;;;;;;0.80;0.80;;;;;;;6.70;95.98;100119.91;4917367;29;20480;-94
2023/01/08 06:28:42;;;;;;;1.40;0.90;;;;;;;6.65;95.90;100114.78;4917853;29;20056;-94
2023/01/08 06:31:10;;;;;;;3.60;1.15;;;;;;;6.63;95.75;100129.47;4917289;29;20083;-94
2023/01/08 06:33:39;;;;;;;1.92;0.90;;;;;;;6.57;95.79;100134.66;4917780;29;20370;-94
2023/01/08 06:36:10;;;;;;;2.35;1.10;;;;;;;6.54;95.69;100133.84;4917268;29;20466;-94
2023/01/08 06:38:38;;;;;;;2.22;1.15;;;;;;;6.51;95.60;100131.28;4919458;29;20032;-93
2023/01/08 06:41:20;;;;;;;1.73;1.05;;;;;;;6.48;95.69;100133.03;4917545;29;20087;-91
2023/01/08 06:43:54;;;;;;;1.77;1.05;;;;;;;6.42;95.42;100134.78;4917759;29;20024;-90
2023/01/08 06:46:20;;;;;;;2.05;0.77;;;;;;;6.39;95.33;100142.59;4916996;29;20031;-96
2023/01/08 06:48:55;;;;;;;1.57;0.70;;;;;;;6.36;95.12;100143.44;4920196;29;20036;-90
2023/01/08 06:51:20;;;;;;;2.50;0.93;;;;;;;6.31;95.16;100142.66;4917724;29;20013;-95
2023/01/08 06:53:49;;;;;;;2.77;0.80;;;;;;;6.36;95.67;100146.03;4917749;29;20087;-91
2023/01/08 06:56:14;;;;;;;2.22;0.90;;;;;;;6.29;95.28;100134.94;4917443;29;20036;-95
2023/01/08 06:58:39;;;;;;;3.30;1.50;;;;;;;6.28;94.86;100135.81;4917752;29;20039;-94
2023/01/08 07:01:05;;;;;;;2.25;0.88;;;;;;;6.25;94.76;100138.41;4917785;29;20052;-95
2023/01/08 07:03:30;;;;;;;3.50;1.35;;;;;;;6.23;94.99;100140.13;4917747;29;20035;-95
2023/01/08 07:06:17;;;;;;;4.07;1.27;;;;;;;6.22;94.65;100137.59;4917617;29;20477;-95
2023/01/08 07:08:43;;;;;;;2.08;0.90;;;;;;;6.23;95.26;100144.44;4917393;29;20027;-95
2023/01/08 07:11:09;;;;;;;3.63;1.30;;;;;;;6.21;94.53;100141.88;4917141;29;20027;-96
2023/01/08 07:13:34;;;;;;;3.25;1.10;;;;;;;6.22;94.35;100138.41;4917533;29;20533;-96
2023/01/08 07:16:18;;;;;;;2.53;1.17;;;;;;;6.22;94.62;100135.84;4916896;29;20036;-95
2023/01/08 07:18:50;;;;;;;3.70;1.45;;;;;;;6.20;94.90;100131.59;4917074;29;20027;-95
2023/01/08 07:21:15;;;;;;;1.80;1.10;;;;;;;6.21;94.87;100123.81;4917152;29;20052;-95
2023/01/08 07:23:41;;;;;;;3.67;1.27;;;;;;;6.18;94.36;100123.88;4917498;29;20031;-95
2023/01/08 07:26:07;;;;;;;1.20;1.03;;;;;;;6.18;95.03;100129.03;4916711;29;20035;-95
2023/01/08 07:28:32;;;;;;;4.40;1.65;;;;;;;6.16;95.06;100134.16;4918391;29;20062;-96
2023/01/08 07:31:02;;;;;;;1.58;1.05;;;;;;;6.11;94.36;100132.50;4928005;29;20063;-93
2023/01/08 07:33:27;;;;;;;2.25;1.33;;;;;;;6.12;94.79;100129.06;4937373;29;20047;-94
2023/01/08 07:35:54;;;;;;;2.40;1.20;;;;;;;6.09;94.51;100129.09;4939573;29;20032;-93
2023/01/08 07:38:20;;;;;;;2.85;1.20;;;;;;;6.07;94.68;100128.25;4944136;29;20043;-92
2023/01/08 07:40:46;;;;;;;5.55;1.55;;;;;;;6.02;94.31;100139.44;4940593;29;20465;-95
2023/01/08 07:43:11;;;;;;;3.45;1.20;;;;;;;5.99;94.44;100131.75;4941381;29;20088;-94
2023/01/08 07:45:37;;;;;;;4.13;1.50;;;;;;;6.01;94.48;100137.75;4939680;29;20031;-95
2023/01/08 07:48:02;;;;;;;2.85;1.20;;;;;;;5.94;94.83;100137.75;4929035;29;20025;-95
2023/01/08 07:50:28;;;;;;;2.17;1.13;;;;;;;5.89;94.34;100130.06;4901742;29;20092;-94
2023/01/08 07:52:58;;;;;;;6.43;1.58;;;;;;;5.90;94.64;100128.38;4902185;29;20031;-90
2023/01/08 07:55:23;;;;;;;3.17;1.15;;;;;;;5.86;94.68;100124.94;4901738;29;20156;-94
2023/01/08 07:57:48;;;;;;;4.22;1.40;;;;;;;5.82;94.81;100131.00;4901595;29;20074;-95
2023/01/08 08:00:14;;;;;;;3.43;1.20;;;;;;;5.81;94.67;100132.69;4900690;29;20488;-96
2023/01/08 08:02:39;;;;;;;3.30;1.02;;;;;;;5.79;94.66;100133.56;4901384;29;20024;-94
2023/01/08 08:05:04;;;;;;;4.05;1.38;;;;;;;5.84;94.61;100124.13;4901781;29;20025;-96
2023/01/08 08:07:48;;;;;;;6.72;1.50;;;;;;;5.77;94.98;100130.16;4902262;29;20076;-96
2023/01/08 08:10:19;;;;;;;3.05;1.20;;;;;;;5.72;94.89;100123.34;4902890;29;20052;-96
2023/01/08 08:12:47;;;;;;;3.78;1.38;;;;;;;5.75;95.08;100108.72;4904157;29;20032;-96
2023/01/08 08:15:28;;;;;;;2.03;0.90;;;;;;;5.76;95.20;100101.00;4903551;29;20087;-96
2023/01/08 08:17:53;;;;;;;1.83;0.90;;;;;;;5.76;95.21;100090.69;4904301;29;20140;-96
2023/01/08 08:20:18;;;;;;;1.88;1.00;;;;;;;5.83;95.23;100091.50;4901093;29;20108;-96
2023/01/08 08:22:44;;;;;;;1.67;0.97;;;;;;;5.88;95.05;100090.59;4901690;29;20405;-95
2023/01/08 08:31:06;;;;;;;3.88;1.10;;;;;;;5.97;95.69;100084.50;4961636;29;20030;-96
2023/01/08 08:33:46;;;;;;;1.83;0.70;;;;;;;6.07;95.39;100079.31;5365236;23;20057;-96
2023/01/08 08:36:12;;;;;;;5.50;1.25;;;;;;;6.15;94.97;100086.09;4904028;29;20056;-96
2023/01/08 08:38:38;;;;;;;1.48;1.00;;;;;;;6.13;95.42;100089.56;4904815;29;20146;-96
2023/01/08 08:41:04;;;;;;;1.88;0.90;;;;;;;6.15;95.78;100080.94;4903617;29;20029;-96
2023/01/08 08:43:30;;;;;;;3.10;1.27;;;;;;;6.20;95.39;100086.03;4917887;29;20019;-96
2023/01/08 08:48:30;;;;;;;1.58;0.90;;;;;;;6.26;95.87;100087.72;5357981;23;20053;-96
2023/01/08 08:50:55;;;;;;;1.67;1.00;;;;;;;6.28;95.54;100084.25;4922996;29;20102;-97
2023/01/08 09:06:38;;;;;;;5.03;1.58;;;;;;;6.27;95.03;100068.81;5264008;23;20040;-96
2023/01/08 09:09:03;;;;;;;6.20;2.13;;;;;;;6.23;95.17;100067.97;5073953;23;20421;-94
2023/01/08 09:11:30;;;;;;;4.17;1.60;;;;;;;6.22;95.37;100073.16;4927817;29;20032;-96
2023/01/08 09:13:55;;;;;;;4.18;1.30;;;;;;;6.13;95.55;100069.81;4933522;29;20051;-96
2023/01/08 09:16:21;;;;;;;3.27;1.20;;;;;;;6.11;95.76;100074.13;4920971;29;20032;-94
2023/01/08 09:18:47;;;;;;;1.90;1.25;;;;;;;6.06;95.96;100073.28;4918575;29;20042;-92
2023/01/08 09:21:22;;;;;;;4.32;1.58;;;;;;;6.07;96.00;100076.75;4915589;29;20095;-93
2023/01/08 09:23:50;;;;;;;4.40;1.45;;;;;;;6.09;95.88;100073.28;4918468;29;20111;-92
2023/01/08 09:26:15;;;;;;;5.00;1.40;;;;;;;6.00;96.35;100069.06;4917754;29;20046;-92
2023/01/08 09:28:41;;;;;;;2.63;1.27;;;;;;;6.02;96.16;100072.47;4918673;29;20024;-93
2023/01/08 09:31:06;;;;;;;3.40;1.50;;;;;;;6.09;95.90;100070.69;4918204;29;20036;-93
2023/01/08 09:33:31;;;;;;;2.97;1.23;;;;;;;6.01;96.28;100068.19;4918702;29;20055;-93
2023/01/08 09:35:57;;;;;;;3.33;1.48;;;;;;;6.00;96.15;100069.06;4919491;29;20032;-93
2023/01/08 09:38:22;;;;;;;2.45;1.38;;;;;;;6.01;96.31;100060.47;4918192;29;20103;-93
2023/01/08 09:41:10;;;;;;;2.78;1.33;;;;;;;6.02;96.20;100054.44;4918956;29;20037;-92
2023/01/08 09:43:42;;;;;;;2.85;1.13;;;;;;;6.00;96.43;100055.34;4931214;29;20027;-92
2023/01/08 09:46:26;;;;;;;2.65;1.30;;;;;;;6.07;96.22;100053.56;4937596;29;20095;-92
2023/01/08 09:48:55;;;;;;;3.72;1.27;;;;;;;5.96;97.21;100051.91;4937855;29;20020;-92
2023/01/08 09:51:22;;;;;;;4.65;1.52;;;;;;;5.99;96.53;100058.75;4937350;29;20024;-92
2023/01/08 09:54:01;;;;;;;2.25;1.30;;;;;;;6.01;96.58;100051.91;4936980;29;20473;-90
2023/01/08 09:56:27;;;;;;;2.63;1.40;;;;;;;6.01;96.81;100049.31;4935267;29;20042;-92
2023/01/08 09:58:55;;;;;;;2.72;1.20;;;;;;;6.01;96.77;100049.31;4937172;29;20456;-93
2023/01/08 10:01:38;;;;;;;5.90;1.75;;;;;;;6.00;98.02;100039.88;4936782;29;20032;-92
2023/01/08 10:04:25;;;;;;;2.67;1.30;;;;;;;6.03;97.67;100045.84;4936592;29;20040;-93
2023/01/08 10:07:04;;;;;;;3.35;1.50;;;;;;;6.11;97.86;100042.34;4937039;29;20500;-94
2023/01/08 10:09:31;;;;;;;4.22;1.40;;;;;;;6.11;97.68;100035.47;4936669;29;20051;-92
2023/01/08 10:11:58;;;;;;;;;;;;;;;6.13;97.09;100041.47;4925978;29;20028;-93
2023/01/08 10:14:38;;;;;;;5.78;1.30;;;;;;;6.15;97.69;100033.72;4917676;29;19962;-92
2023/01/08 10:17:15;;;;;;;3.80;1.27;;;;;;;6.19;97.72;100037.97;4917849;29;20035;-93
2023/01/08 10:19:40;;;;;;;;;;;;;;;6.30;97.32;100031.00;4913846;29;20036;-92
2023/01/08 10:22:15;;;;;;;4.03;1.70;;;;;;;6.29;97.98;100028.41;4917658;29;19999;-93
2023/01/08 10:24:42;;;;;;;4.43;1.60;;;;;;;6.32;97.66;100018.09;4918140;29;20087;-93
2023/01/08 10:27:27;;;;;;;5.82;1.60;;;;;;;6.39;98.12;100018.88;4917813;29;20103;-93
2023/01/08 10:30:16;;;;;;;3.30;1.60;;;;;;;6.42;98.24;100017.09;4916457;29;20478;-92
2023/01/08 10:32:48;;;;;;;2.80;1.42;;;;;;;6.48;97.86;100018.75;4917469;29;20039;-92
2023/01/08 10:35:18;;;;;;;2.47;1.38;;;;;;;6.49;97.74;100005.84;4917325;29;20144;-92
2023/01/08 10:37:55;;;;;;;2.58;1.50;;;;;;;6.53;97.99;100011.81;4918185;29;20020;-93
2023/01/08 10:40:31;;;;;;;3.97;1.92;;;;;;;6.64;96.99;100004.78;4917845;29;20028;-92
2023/01/08 10:43:15;;;;;;;4.70;1.80;;;;;;;6.82;96.75;100002.00;4915203;29;20040;-93
2023/01/08 10:45:42;;;;;;;4.18;1.55;;;;;;;6.84;97.29;100001.13;4917449;29;20481;-91
2023/01/08 10:48:29;;;;;;;3.17;1.35;;;;;;;7.00;97.19;99990.56;4917421;29;20114;-92
2023/01/08 10:51:23;;;;;;;3.78;1.48;;;;;;;7.19;97.21;99980.84;4917107;29;20035;-92
2023/01/08 10:53:50;;;;;;;2.55;1.10;;;;;;;7.39;95.96;99981.38;4916967;29;20036;-92
2023/01/08 10:56:29;;;;;;;3.08;1.20;;;;;;;7.56;95.75;99980.25;4916901;29;20031;-92
2023/01/08 10:58:55;;;;;;;2.35;1.10;;;;;;;7.75;95.09;99970.47;4916655;29;20039;-92
2023/01/08 11:01:28;;;;;;;4.10;1.23;;;;;;;7.86;94.97;99972.84;4917087;29;20028;-92
2023/01/08 11:04:03;;;;;;;3.92;1.27;;;;;;;8.00;94.71;99970.00;4916698;29;20466;-91
2023/01/08 11:06:31;;;;;;;1.38;0.80;;;;;;;8.09;94.52;99967.28;4919202;29;20489;-93
2023/01/08 11:09:02;;;;;;;1.92;1.00;;;;;;;8.19;93.22;99968.78;4920837;29;20068;-92
2023/01/08 11:11:35;;;;;;;1.30;0.85;;;;;;;8.31;93.82;99972.03;4916058;29;20548;-93
2023/01/08 11:14:04;;;;;;;1.70;0.77;;;;;;;8.37;93.66;99960.69;4921623;29;20024;-91
2023/01/08 11:16:35;;;;;;;1.20;0.73;;;;;;;8.47;93.00;99960.50;4921328;29;20024;-92
2023/01/08 11:19:01;;;;;;;1.58;1.10;;;;;;;8.53;91.14;99958.69;4921389;29;20028;-92
2023/01/08 11:21:32;;;;;;;1.03;0.80;;;;;;;8.60;90.45;99949.91;4920915;29;20028;-91
2023/01/08 11:24:16;;;;;;;1.90;0.70;;;;;;;8.66;91.46;99947.19;4921185;29;20024;-93
2023/01/08 11:26:47;;;;;;;0.98;0.63;;;;;;;8.72;90.81;99939.28;4921059;29;20024;-92
2023/01/08 11:29:23;;;;;;;1.25;0.70;;;;;;;8.71;90.59;99936.75;4920820;29;20040;-92
2023/01/08 11:32:02;;;;;;;3.22;0.80;;;;;;;8.80;89.04;99933.94;4920278;29;20485;-92
2023/01/08 11:34:35;;;;;;;1.65;0.90;;;;;;;8.82;88.62;99924.41;4921239;29;20039;-92
2023/01/08 11:37:13;;;;;;;1.13;0.80;;;;;;;8.85;87.27;99921.75;4920972;29;20043;-92
2023/01/08 11:39:38;;;;;;;1.25;0.82;;;;;;;8.89;88.95;99917.38;4920546;29;20035;-92
2023/01/08 11:42:30;;;;;;;1.37;0.93;;;;;;;8.93;89.16;99921.56;4920526;29;20159;-92
2023/01/08 11:45:14;;;;;;;0.82;0.60;;;;;;;8.96;88.04;99921.50;4920512;29;20029;-92
2023/01/08 11:48:12;;;;;;;0.88;0.80;;;;;;;9.03;87.35;99911.88;4920507;29;20044;-92
2023/01/08 11:50:59;;;;;;;1.00;0.88;;;;;;;9.05;86.66;99908.34;4920235;29;20028;-92
2023/01/08 11:53:35;;;;;;;;;;;;;;;9.11;88.60;99903.03;4920823;29;20034;-92
2023/01/08 11:56:33;;;;;;;1.65;0.60;;;;;;;9.19;88.26;99909.75;4919875;29;20010;-91
2023/01/08 11:59:19;;;;;;;1.55;0.63;;;;;;;9.23;86.08;99909.63;4920341;29;20044;-92
2023/01/08 12:01:59;;;;;;;0.85;0.80;;;;;;;9.29;87.11;99905.22;4919765;29;20075;-90
2023/01/08 12:04:40;;;;;;;0.70;0.70;;;;;;;9.30;86.42;99899.09;4919801;29;20036;-90
2023/01/08 12:07:21;;;;;;;0.95;0.80;;;;;;;9.30;87.03;99905.16;4919574;29;20024;-91
2023/01/08 12:09:56;;;;;;;0.82;0.75;;;;;;;9.29;86.79;99900.88;4919991;29;20048;-90
2023/01/08 12:12:51;;;;;;;2.60;0.80;;;;;;;9.30;85.19;99902.56;4916837;29;20036;-87
2023/01/08 12:15:33;;;;;;;2.23;1.00;;;;;;;9.32;86.89;99905.97;4903178;29;20037;-86
2023/01/08 12:18:25;;;;;;;1.48;0.90;;;;;;;9.35;85.24;99887.75;4898755;29;20104;-88
2023/01/08 12:20:57;;;;;;;2.25;0.95;;;;;;;9.36;86.57;99889.44;4899104;29;20024;-87
2023/01/08 12:23:34;;;;;;;2.30;1.10;;;;;;;9.37;86.27;99887.72;4904773;29;20036;-86